LHA2128 EDDH-LICJ
Flight info
| Callsign | LHA2128 |
|---|---|
| Flight time | N/A |
| Altitude | 33000 |
| Route | AMLUH M852 POVEL Z94 GALMA T703 ARBAX T108 OSTES T700 BADIT DCT TIBRO DCT RCH DCT BARPI DCT BAXON DCT IVMEP DCT ALAXI DCT TAGEL DCT LURON |
| Aircraft | A320/M-SDE1E2FGIRWYZ/LB1 |
Departure
| Time | 2026-05-06 04:21 |
|---|---|
| Airport | Hamburg Helmut Schmidt Airport (EDDH) |
Arrival
| Time | N/A |
|---|---|
| Airport | Falcone–Borsellino Airport (LICJ) |
| Time | Latitude | Longitude | Altitude | Speed | Heading |
|---|---|---|---|---|---|
| 2026-05-06 04:09 | 53.63250 | 10.00359 | 62 ft | 0 kts | 84° |
| 2026-05-06 04:14 | 53.63249 | 10.00356 | 62 ft | 1 kts | 84° |
| 2026-05-06 04:14 | 53.63249 | 10.00331 | 62 ft | 2 kts | 100° |
| 2026-05-06 04:14 | 53.63253 | 10.00306 | 62 ft | 2 kts | 111° |
| 2026-05-06 04:15 | 53.63260 | 10.00284 | 62 ft | 2 kts | 124° |
| 2026-05-06 04:15 | 53.63269 | 10.00264 | 62 ft | 2 kts | 137° |
| 2026-05-06 04:15 | 53.63281 | 10.00249 | 62 ft | 2 kts | 150° |
| 2026-05-06 04:15 | 53.63295 | 10.00238 | 62 ft | 2 kts | 162° |
| 2026-05-06 04:16 | 53.63307 | 10.00234 | 62 ft | 0 kts | 173° |
| 2026-05-06 04:16 | 53.63313 | 10.00233 | 62 ft | 0 kts | 176° |
| 2026-05-06 04:17 | 53.63309 | 10.00233 | 62 ft | 4 kts | 176° |
| 2026-05-06 04:17 | 53.63232 | 10.00221 | 62 ft | 14 kts | 187° |
| 2026-05-06 04:18 | 53.63134 | 10.00211 | 62 ft | 14 kts | 180° |
| 2026-05-06 04:18 | 53.63052 | 10.00202 | 62 ft | 6 kts | 198° |
| 2026-05-06 04:18 | 53.63007 | 10.00176 | 62 ft | 6 kts | 199° |
| 2026-05-06 04:18 | 53.62965 | 10.00144 | 62 ft | 7 kts | 213° |
| 2026-05-06 04:19 | 53.62934 | 10.00078 | 62 ft | 7 kts | 244° |
| 2026-05-06 04:19 | 53.62916 | 9.99998 | 62 ft | 8 kts | 249° |
| 2026-05-06 04:19 | 53.62890 | 9.99899 | 62 ft | 10 kts | 246° |
| 2026-05-06 04:19 | 53.62868 | 9.99778 | 62 ft | 11 kts | 279° |
| 2026-05-06 04:20 | 53.62947 | 9.99674 | 62 ft | 25 kts | 332° |
| 2026-05-06 04:20 | 53.63245 | 9.99414 | 62 ft | 81 kts | 333° |
| 2026-05-06 04:20 | 53.63983 | 9.98782 | 62 ft | 153 kts | 333° |
| 2026-05-06 04:20 | 53.65031 | 9.97903 | 556 ft | 172 kts | 338° |
| 2026-05-06 04:21 | 53.66099 | 9.97050 | 1390 ft | 174 kts | 336° |
| 2026-05-06 04:21 | 53.67147 | 9.96143 | 2148 ft | 174 kts | 334° |
| 2026-05-06 04:21 | 53.68271 | 9.95162 | 2619 ft | 192 kts | 335° |
| 2026-05-06 04:21 | 53.69593 | 9.94650 | 3132 ft | 209 kts | 0° |
| 2026-05-06 04:22 | 53.71096 | 9.94684 | 3730 ft | 222 kts | 359° |
| 2026-05-06 04:22 | 53.72607 | 9.95165 | 4462 ft | 229 kts | 26° |
| 2026-05-06 04:22 | 53.73793 | 9.96964 | 5148 ft | 241 kts | 56° |
| 2026-05-06 04:23 | 53.74291 | 10.02632 | 6538 ft | 258 kts | 98° |
| 2026-05-06 04:23 | 53.73646 | 10.05498 | 7035 ft | 272 kts | 118° |
| 2026-05-06 04:23 | 53.72677 | 10.08366 | 7442 ft | 289 kts | 120° |
| 2026-05-06 04:23 | 53.71669 | 10.11337 | 8053 ft | 296 kts | 121° |
| 2026-05-06 04:24 | 53.70648 | 10.14354 | 8752 ft | 300 kts | 121° |
| 2026-05-06 04:24 | 53.69609 | 10.17429 | 9507 ft | 301 kts | 123° |
| 2026-05-06 04:24 | 53.68287 | 10.20075 | 10187 ft | 297 kts | 147° |
| 2026-05-06 04:24 | 53.66429 | 10.21552 | 10596 ft | 303 kts | 168° |
| 2026-05-06 04:25 | 53.64537 | 10.22405 | 10903 ft | 316 kts | 168° |
| 2026-05-06 04:25 | 53.62445 | 10.23344 | 11187 ft | 331 kts | 168° |
| 2026-05-06 04:25 | 53.60200 | 10.24361 | 11484 ft | 344 kts | 168° |
| 2026-05-06 04:25 | 53.57881 | 10.25419 | 12014 ft | 348 kts | 167° |
| 2026-05-06 04:26 | 53.56328 | 10.26129 | 12416 ft | 349 kts | 167° |
| 2026-05-06 04:26 | 53.53185 | 10.27566 | 13151 ft | 353 kts | 168° |
| 2026-05-06 04:26 | 53.50815 | 10.28649 | 13678 ft | 356 kts | 168° |
| 2026-05-06 04:26 | 53.48426 | 10.29739 | 14198 ft | 358 kts | 168° |
| 2026-05-06 04:27 | 53.46040 | 10.30826 | 14699 ft | 361 kts | 168° |
| 2026-05-06 04:27 | 53.43601 | 10.31938 | 15191 ft | 364 kts | 169° |
| 2026-05-06 04:27 | 53.41162 | 10.33044 | 15664 ft | 366 kts | 169° |
| 2026-05-06 04:27 | 53.38694 | 10.34154 | 16128 ft | 369 kts | 169° |
| 2026-05-06 04:28 | 53.36305 | 10.35228 | 16563 ft | 372 kts | 169° |
| 2026-05-06 04:28 | 53.33798 | 10.36354 | 17004 ft | 374 kts | 169° |
| 2026-05-06 04:28 | 53.31280 | 10.37483 | 17432 ft | 377 kts | 169° |
| 2026-05-06 04:28 | 53.28759 | 10.38613 | 17848 ft | 380 kts | 170° |
| 2026-05-06 04:29 | 53.26203 | 10.39757 | 18252 ft | 382 kts | 170° |
| 2026-05-06 04:29 | 53.23622 | 10.40910 | 18647 ft | 385 kts | 170° |
| 2026-05-06 04:29 | 53.21036 | 10.42065 | 19029 ft | 388 kts | 170° |
| 2026-05-06 04:29 | 53.18425 | 10.43230 | 19406 ft | 390 kts | 170° |
| 2026-05-06 04:30 | 53.15810 | 10.44395 | 19772 ft | 393 kts | 171° |
| 2026-05-06 04:30 | 53.13164 | 10.45572 | 20131 ft | 396 kts | 171° |
| 2026-05-06 04:30 | 53.10500 | 10.46756 | 20476 ft | 398 kts | 171° |
| 2026-05-06 04:30 | 53.07836 | 10.47939 | 20771 ft | 402 kts | 171° |
| 2026-05-06 04:31 | 53.05115 | 10.49145 | 21048 ft | 407 kts | 172° |
| 2026-05-06 04:31 | 53.02373 | 10.50359 | 21321 ft | 411 kts | 172° |
| 2026-05-06 04:31 | 52.99586 | 10.51592 | 21587 ft | 415 kts | 172° |
| 2026-05-06 04:31 | 52.96806 | 10.52820 | 21841 ft | 420 kts | 172° |
| 2026-05-06 04:32 | 52.93968 | 10.54071 | 22101 ft | 424 kts | 172° |
| 2026-05-06 04:32 | 52.91145 | 10.55316 | 22410 ft | 426 kts | 172° |
| 2026-05-06 04:32 | 52.88248 | 10.56593 | 22733 ft | 428 kts | 173° |
| 2026-05-06 04:32 | 52.85393 | 10.57847 | 23035 ft | 430 kts | 173° |
| 2026-05-06 04:33 | 52.82477 | 10.59136 | 23331 ft | 433 kts | 172° |
| 2026-05-06 04:33 | 52.79581 | 10.60431 | 23617 ft | 435 kts | 173° |
| 2026-05-06 04:33 | 52.76648 | 10.61741 | 23898 ft | 438 kts | 173° |
| 2026-05-06 04:33 | 52.73679 | 10.63064 | 24176 ft | 440 kts | 173° |
| 2026-05-06 04:34 | 52.70945 | 10.64280 | 24426 ft | 442 kts | 173° |
| 2026-05-06 04:34 | 52.68619 | 10.65313 | 24636 ft | 444 kts | 174° |
| 2026-05-06 04:34 | 52.65644 | 10.66633 | 24907 ft | 445 kts | 174° |
| 2026-05-06 04:34 | 52.62657 | 10.67955 | 25155 ft | 447 kts | 174° |
| 2026-05-06 04:35 | 52.59653 | 10.69283 | 25393 ft | 450 kts | 174° |
| 2026-05-06 04:35 | 52.56638 | 10.70614 | 25629 ft | 452 kts | 174° |
| 2026-05-06 04:35 | 52.53582 | 10.71961 | 25863 ft | 454 kts | 174° |
| 2026-05-06 04:35 | 52.50535 | 10.73303 | 26089 ft | 456 kts | 174° |
| 2026-05-06 04:36 | 52.47491 | 10.74641 | 26309 ft | 458 kts | 174° |
| 2026-05-06 04:36 | 52.44381 | 10.76006 | 26529 ft | 460 kts | 174° |
| 2026-05-06 04:36 | 52.41298 | 10.77357 | 26744 ft | 462 kts | 174° |
| 2026-05-06 04:36 | 52.38192 | 10.78705 | 26955 ft | 462 kts | 176° |
| 2026-05-06 04:37 | 52.35081 | 10.79665 | 27155 ft | 456 kts | 182° |
| 2026-05-06 04:37 | 52.31969 | 10.80140 | 27357 ft | 454 kts | 185° |
| 2026-05-06 04:37 | 52.28799 | 10.80576 | 27566 ft | 456 kts | 185° |
| 2026-05-06 04:37 | 52.25659 | 10.81010 | 27766 ft | 457 kts | 185° |
| 2026-05-06 04:38 | 52.22505 | 10.81447 | 27961 ft | 459 kts | 185° |
| 2026-05-06 04:38 | 52.19301 | 10.81890 | 28154 ft | 461 kts | 185° |
| 2026-05-06 04:38 | 52.16099 | 10.82366 | 28339 ft | 465 kts | 182° |
| 2026-05-06 04:38 | 52.12898 | 10.83438 | 28509 ft | 480 kts | 172° |
| 2026-05-06 04:39 | 52.09771 | 10.85446 | 28664 ft | 496 kts | 162° |
| 2026-05-06 04:39 | 52.06686 | 10.88085 | 28869 ft | 499 kts | 160° |
| 2026-05-06 04:39 | 52.03671 | 10.90716 | 29102 ft | 499 kts | 161° |
| 2026-05-06 04:39 | 52.00598 | 10.93385 | 29314 ft | 499 kts | 161° |
| 2026-05-06 04:40 | 51.97512 | 10.96054 | 29512 ft | 500 kts | 161° |
| 2026-05-06 04:40 | 51.94465 | 10.98682 | 29701 ft | 501 kts | 161° |
| 2026-05-06 04:40 | 51.91389 | 11.01330 | 29891 ft | 502 kts | 161° |
| 2026-05-06 04:40 | 51.88305 | 11.03979 | 30069 ft | 504 kts | 161° |
| 2026-05-06 04:41 | 51.85229 | 11.06618 | 30235 ft | 505 kts | 161° |
| 2026-05-06 04:41 | 51.82125 | 11.09277 | 30428 ft | 506 kts | 161° |
| 2026-05-06 04:41 | 51.78976 | 11.11970 | 30632 ft | 507 kts | 161° |
| 2026-05-06 04:41 | 51.75869 | 11.14623 | 30813 ft | 508 kts | 161° |
| 2026-05-06 04:42 | 51.72764 | 11.17269 | 30992 ft | 509 kts | 161° |
| 2026-05-06 04:42 | 51.69638 | 11.19929 | 31168 ft | 510 kts | 161° |
| 2026-05-06 04:42 | 51.66473 | 11.22619 | 31344 ft | 511 kts | 161° |
| 2026-05-06 04:42 | 51.63364 | 11.25256 | 31530 ft | 512 kts | 161° |
| 2026-05-06 04:43 | 51.60282 | 11.27868 | 31700 ft | 513 kts | 161° |
| 2026-05-06 04:43 | 51.57170 | 11.30501 | 31864 ft | 514 kts | 161° |
| 2026-05-06 04:43 | 51.53981 | 11.33196 | 32051 ft | 515 kts | 161° |
| 2026-05-06 04:43 | 51.50820 | 11.35862 | 32208 ft | 516 kts | 161° |
| 2026-05-06 04:44 | 51.47649 | 11.38532 | 32371 ft | 517 kts | 160° |
| 2026-05-06 04:44 | 51.44488 | 11.41191 | 32535 ft | 518 kts | 160° |
| 2026-05-06 04:44 | 51.41278 | 11.43886 | 32709 ft | 519 kts | 160° |
| 2026-05-06 04:44 | 51.38064 | 11.46578 | 32829 ft | 520 kts | 160° |
| 2026-05-06 04:45 | 51.34890 | 11.49222 | 32859 ft | 522 kts | 160° |
| 2026-05-06 04:45 | 51.28439 | 11.54583 | 32861 ft | 526 kts | 160° |
| 2026-05-06 04:46 | 51.21957 | 11.59957 | 32856 ft | 526 kts | 160° |
| 2026-05-06 04:46 | 51.15455 | 11.65263 | 32850 ft | 522 kts | 165° |
| 2026-05-06 04:47 | 51.14910 | 11.65646 | 32849 ft | 519 kts | 167° |